SKW5345 KPSP-KLAX
Flight info
| Callsign | SKW5345 |
|---|---|
| Flight time | N/A |
| Altitude | 16000 |
| Route | PSP V388 LENHO SEAVU SEAVU2 |
| Aircraft | E75L/M-SDE3GILORVW/S |
Departure
| Time | 2026-05-06 01:53 |
|---|---|
| Airport | Palm Springs International Airport (KPSP) |
Arrival
| Time | N/A |
|---|---|
| Airport | Los Angeles International Airport (KLAX) |
| Time | Latitude | Longitude | Altitude | Speed | Heading |
|---|---|---|---|---|---|
| 2026-05-06 01:07 | 33.82083 | -116.50720 | 423 ft | 0 kts | 360° |
| 2026-05-06 01:33 | 33.82076 | -116.50720 | 414 ft | 3 kts | 360° |
| 2026-05-06 01:33 | 33.82055 | -116.50720 | 422 ft | 2 kts | 360° |
| 2026-05-06 01:33 | 33.82037 | -116.50723 | 424 ft | 3 kts | 27° |
| 2026-05-06 01:33 | 33.82028 | -116.50738 | 417 ft | 3 kts | 97° |
| 2026-05-06 01:34 | 33.82038 | -116.50757 | 420 ft | 3 kts | 135° |
| 2026-05-06 01:34 | 33.82046 | -116.50767 | 423 ft | 0 kts | 135° |
| 2026-05-06 01:39 | 33.82045 | -116.50766 | 425 ft | 1 kts | 135° |
| 2026-05-06 01:40 | 33.82033 | -116.50751 | 418 ft | 4 kts | 135° |
| 2026-05-06 01:40 | 33.82016 | -116.50731 | 417 ft | 0 kts | 135° |
| 2026-05-06 01:42 | 33.82008 | -116.50722 | 420 ft | 2 kts | 135° |
| 2026-05-06 01:42 | 33.81999 | -116.50710 | 425 ft | 3 kts | 135° |
| 2026-05-06 01:42 | 33.81979 | -116.50686 | 425 ft | 5 kts | 126° |
| 2026-05-06 01:42 | 33.81968 | -116.50640 | 425 ft | 7 kts | 96° |
| 2026-05-06 01:43 | 33.81967 | -116.50616 | 425 ft | 0 kts | 89° |
| 2026-05-06 01:47 | 33.81967 | -116.50613 | 425 ft | 1 kts | 89° |
| 2026-05-06 01:47 | 33.81968 | -116.50570 | 425 ft | 9 kts | 89° |
| 2026-05-06 01:48 | 33.81967 | -116.50478 | 424 ft | 13 kts | 89° |
| 2026-05-06 01:48 | 33.81966 | -116.50369 | 415 ft | 10 kts | 90° |
| 2026-05-06 01:48 | 33.81966 | -116.50269 | 412 ft | 12 kts | 90° |
| 2026-05-06 01:48 | 33.81966 | -116.50194 | 411 ft | 7 kts | 90° |
| 2026-05-06 01:49 | 33.81966 | -116.50192 | 411 ft | 0 kts | 90° |
| 2026-05-06 01:49 | 33.81966 | -116.50186 | 411 ft | 2 kts | 90° |
| 2026-05-06 01:49 | 33.81967 | -116.50151 | 412 ft | 7 kts | 90° |
| 2026-05-06 01:49 | 33.81959 | -116.50089 | 409 ft | 9 kts | 118° |
| 2026-05-06 01:50 | 33.81924 | -116.50042 | 411 ft | 14 kts | 143° |
| 2026-05-06 01:50 | 33.81851 | -116.49964 | 409 ft | 11 kts | 100° |
| 2026-05-06 01:50 | 33.81852 | -116.49908 | 410 ft | 3 kts | 90° |
| 2026-05-06 01:51 | 33.81851 | -116.49897 | 410 ft | 4 kts | 90° |
| 2026-05-06 01:51 | 33.81858 | -116.49833 | 410 ft | 9 kts | 58° |
| 2026-05-06 01:52 | 33.81920 | -116.49832 | 408 ft | 11 kts | 321° |
| 2026-05-06 01:52 | 33.81938 | -116.49849 | 408 ft | 0 kts | 322° |
| 2026-05-06 01:52 | 33.82021 | -116.49925 | 410 ft | 49 kts | 324° |
| 2026-05-06 01:52 | 33.82524 | -116.50370 | 417 ft | 128 kts | 323° |
| 2026-05-06 01:53 | 33.83342 | -116.51104 | 974 ft | 154 kts | 322° |
| 2026-05-06 01:53 | 33.84204 | -116.51962 | 1892 ft | 171 kts | 316° |
| 2026-05-06 01:53 | 33.85126 | -116.52963 | 2805 ft | 186 kts | 313° |
| 2026-05-06 01:53 | 33.86089 | -116.54087 | 3757 ft | 197 kts | 312° |
| 2026-05-06 01:54 | 33.87097 | -116.55182 | 4599 ft | 200 kts | 321° |
| 2026-05-06 01:54 | 33.88246 | -116.56141 | 5343 ft | 204 kts | 325° |
| 2026-05-06 01:54 | 33.89534 | -116.57013 | 5963 ft | 220 kts | 335° |
| 2026-05-06 01:54 | 33.91122 | -116.57369 | 6473 ft | 249 kts | 358° |
| 2026-05-06 01:55 | 33.92866 | -116.56846 | 7053 ft | 271 kts | 24° |
| 2026-05-06 01:55 | 33.94294 | -116.55332 | 7938 ft | 274 kts | 53° |
| 2026-05-06 01:55 | 33.95110 | -116.53248 | 8368 ft | 285 kts | 71° |
| 2026-05-06 01:55 | 33.95100 | -116.50826 | 7931 ft | 294 kts | 107° |
| 2026-05-06 01:56 | 33.94008 | -116.48839 | 7980 ft | 284 kts | 138° |
| 2026-05-06 01:56 | 33.92408 | -116.47458 | 8496 ft | 283 kts | 144° |
| 2026-05-06 01:56 | 33.90765 | -116.46113 | 9331 ft | 288 kts | 142° |
| 2026-05-06 01:56 | 33.89133 | -116.44676 | 10106 ft | 294 kts | 141° |
| 2026-05-06 01:57 | 33.87454 | -116.43161 | 10625 ft | 309 kts | 135° |
| 2026-05-06 01:57 | 33.86088 | -116.41138 | 11087 ft | 318 kts | 117° |
| 2026-05-06 01:57 | 33.85023 | -116.38760 | 11632 ft | 327 kts | 113° |
| 2026-05-06 01:57 | 33.84020 | -116.36306 | 12200 ft | 334 kts | 114° |
| 2026-05-06 01:58 | 33.82981 | -116.33770 | 12194 ft | 336 kts | 114° |
| 2026-05-06 01:58 | 33.81965 | -116.31304 | 12150 ft | 322 kts | 114° |
| 2026-05-06 01:58 | 33.80972 | -116.28904 | 11943 ft | 316 kts | 114° |
| 2026-05-06 01:58 | 33.80002 | -116.26572 | 12043 ft | 323 kts | 115° |
| 2026-05-06 01:59 | 33.79063 | -116.24040 | 12030 ft | 328 kts | 105° |